Freeburg, Missouri
Current Conditions -  °F | °C
As of 2:53 PM on Tuesday 21 Oct 2014 (Local Time) from KVIH Reporting Station
Clear Clear  
Wind Chill: 22°   Ceiling: Unl
Heat Index: 22°   Visibility: 10mi
Dew Point:   Wind: 8mph
Humidity: 36%   Direction: 20°NNE
Pressure: 30.09"   Gusts: NA
Location:  38.32°N, 91.92°W
Report Text: KVIH 211953Z AUTO 02007KT 310V040 10SM CLR 22/06 A3009 RMK AO2 SLP184 T02170061
Loading
Personal Weather Stations






























Interactive Weather Map
Tropical Storm Tracking
New forecast layout! Learn more

10-Day Weather Forecast

Advertisements
Track Severe Weather on mobile